Time;durP1;ratioP1;P1;durP2;ratioP2;P2;SDS_P1;SDS_P2;PMS_P1;PMS_P2;Temp;Humidity;BMP_temperature;BMP_pressure;BME280_temperature;BME280_humidity;BME280_pressure;Samples;Min_cycle;Max_cycle;Signal;HPM_P1;HPM_P2
2023/03/12 00:00:26;;;;;;;2.70;2.50;;;;;;;;;;5035995;28;20206;-72
2023/03/12 00:02:54;;;;;;;2.90;2.70;;;;;;;;;;5035126;28;20226;-72
2023/03/12 00:05:24;;;;;;;2.70;2.50;;;;;;;;;;5035317;28;20206;-72
2023/03/12 00:07:52;;;;;;;2.72;2.53;;;;;;;;;;5035625;28;20216;-72
2023/03/12 00:10:20;;;;;;;2.42;2.22;;;;;;;;;;5035707;28;20213;-74
2023/03/12 00:12:48;;;;;;;3.00;2.78;;;;;;;;;;5035998;28;20228;-72
2023/03/12 00:15:17;;;;;;;2.72;2.50;;;;;;;;;;5036059;28;20201;-73
2023/03/12 00:17:45;;;;;;;3.17;2.88;;;;;;;;;;5035310;28;20212;-74
2023/03/12 00:20:13;;;;;;;2.60;2.40;;;;;;;;;;5035448;28;20712;-73
2023/03/12 00:22:40;;;;;;;2.58;2.38;;;;;;;;;;5035041;28;20625;-73
2023/03/12 00:25:11;;;;;;;2.70;2.30;;;;;;;;;;5035694;28;20256;-73
2023/03/12 00:27:39;;;;;;;2.80;2.60;;;;;;;;;;5035503;28;20215;-73
2023/03/12 00:30:07;;;;;;;2.90;2.60;;;;;;;;;;5035321;28;20206;-73
2023/03/12 00:32:37;;;;;;;2.88;2.67;;;;;;;;;;5035205;28;20586;-73
2023/03/12 00:35:05;;;;;;;2.92;2.42;;;;;;;;;;5035011;28;20214;-73
2023/03/12 00:37:33;;;;;;;3.10;2.53;;;;;;;;;;5035171;28;20205;-73
2023/03/12 00:40:01;;;;;;;2.92;2.70;;;;;;;;;;5034796;28;20205;-73
2023/03/12 00:42:28;;;;;;;2.42;2.22;;;;;;;;;;5034692;28;20260;-73
2023/03/12 00:44:56;;;;;;;2.40;2.20;;;;;;;;;;5035181;28;20542;-73
2023/03/12 00:47:24;;;;;;;2.33;2.13;;;;;;;;;;5034352;28;20216;-74
2023/03/12 00:49:53;;;;;;;2.63;2.42;;;;;;;;;;5035022;28;20209;-73
2023/03/12 00:52:21;;;;;;;3.05;2.80;;;;;;;;;;5034433;28;20274;-73
2023/03/12 00:54:48;;;;;;;2.70;2.50;;;;;;;;;;5034428;28;20289;-73
2023/03/12 00:57:16;;;;;;;2.60;2.40;;;;;;;;;;5035063;28;20205;-73
2023/03/12 00:59:44;;;;;;;2.38;2.17;;;;;;;;;;5035176;28;20546;-73
2023/03/12 01:02:12;;;;;;;2.55;2.35;;;;;;;;;;5034360;28;20230;-72
2023/03/12 01:04:39;;;;;;;3.28;2.33;;;;;;;;;;5034162;28;20206;-74
2023/03/12 01:07:08;;;;;;;2.80;2.60;;;;;;;;;;5033847;28;20213;-71
2023/03/12 01:09:36;;;;;;;3.10;2.40;;;;;;;;;;5034381;28;20206;-72
2023/03/12 01:12:04;;;;;;;2.65;2.40;;;;;;;;;;5034538;28;20301;-74
2023/03/12 01:14:32;;;;;;;2.45;2.25;;;;;;;;;;5034807;28;20287;-74
2023/03/12 01:16:59;;;;;;;2.33;2.13;;;;;;;;;;5034440;28;20212;-74
2023/03/12 01:19:27;;;;;;;2.40;2.20;;;;;;;;;;5034411;28;20215;-74
2023/03/12 01:21:55;;;;;;;2.60;2.40;;;;;;;;;;5033807;28;20348;-74
2023/03/12 01:24:24;;;;;;;2.72;2.45;;;;;;;;;;5034006;28;20253;-73
2023/03/12 01:26:52;;;;;;;2.50;2.30;;;;;;;;;;5034410;28;20496;-73
2023/03/12 01:29:19;;;;;;;2.50;2.30;;;;;;;;;;5034664;28;20206;-72
2023/03/12 01:31:47;;;;;;;2.40;2.13;;;;;;;;;;5034299;28;20689;-73
2023/03/12 01:34:15;;;;;;;2.60;2.40;;;;;;;;;;5034666;28;20258;-74
2023/03/12 01:36:43;;;;;;;2.15;2.03;;;;;;;;;;5034839;28;20216;-73
2023/03/12 01:39:11;;;;;;;2.55;2.25;;;;;;;;;;5034579;28;20206;-74
2023/03/12 01:41:41;;;;;;;2.50;2.30;;;;;;;;;;5034611;28;20627;-74
2023/03/12 01:44:11;;;;;;;2.47;2.28;;;;;;;;;;5034643;28;20202;-74
2023/03/12 01:46:41;;;;;;;2.72;2.53;;;;;;;;;;5034187;28;20305;-74
2023/03/12 01:49:10;;;;;;;2.30;2.10;;;;;;;;;;5034507;28;20206;-74
2023/03/12 01:51:40;;;;;;;2.70;2.50;;;;;;;;;;5034649;28;20296;-72
2023/03/12 01:54:09;;;;;;;2.60;2.40;;;;;;;;;;5034265;28;20217;-74
2023/03/12 01:56:38;;;;;;;2.30;2.10;;;;;;;;;;5033846;27;20297;-74
2023/03/12 01:59:11;;;;;;;2.35;2.15;;;;;;;;;;5033865;28;20301;-74
2023/03/12 02:01:39;;;;;;;2.45;2.25;;;;;;;;;;5034132;28;20251;-72
2023/03/12 02:04:07;;;;;;;2.45;2.25;;;;;;;;;;5034091;28;20245;-73
2023/03/12 02:06:38;;;;;;;2.50;2.30;;;;;;;;;;5034158;28;20206;-73
2023/03/12 02:09:06;;;;;;;2.65;2.45;;;;;;;;;;5037293;28;20210;-73
2023/03/12 02:11:34;;;;;;;2.50;2.30;;;;;;;;;;5037882;28;20214;-73
2023/03/12 02:14:02;;;;;;;2.40;2.20;;;;;;;;;;5037876;28;20216;-72
2023/03/12 02:16:31;;;;;;;2.30;2.10;;;;;;;;;;5037730;28;20266;-72
2023/03/12 02:19:01;;;;;;;2.42;2.22;;;;;;;;;;5037450;28;20221;-74
2023/03/12 02:21:32;;;;;;;2.30;2.10;;;;;;;;;;5037313;28;20225;-72
2023/03/12 02:24:03;;;;;;;2.47;2.28;;;;;;;;;;5037120;28;20241;-73
2023/03/12 02:26:32;;;;;;;2.45;2.25;;;;;;;;;;5037488;28;20213;-72
2023/03/12 02:29:01;;;;;;;2.40;2.20;;;;;;;;;;5039708;28;20205;-73
2023/03/12 02:31:30;;;;;;;2.55;2.35;;;;;;;;;;5048404;28;20197;-72
2023/03/12 02:33:59;;;;;;;2.33;2.13;;;;;;;;;;5057003;28;20581;-73
2023/03/12 02:36:27;;;;;;;2.00;1.90;;;;;;;;;;5056927;28;20216;-74
2023/03/12 02:38:55;;;;;;;2.50;2.30;;;;;;;;;;5056830;28;20205;-74
2023/03/12 02:41:25;;;;;;;2.30;2.10;;;;;;;;;;5057090;28;20304;-71
2023/03/12 02:43:58;;;;;;;2.50;2.30;;;;;;;;;;5056474;28;20641;-73
2023/03/12 02:46:26;;;;;;;2.42;2.22;;;;;;;;;;5055471;28;20297;-74
2023/03/12 02:48:54;;;;;;;2.30;2.15;;;;;;;;;;5057039;28;20593;-73
2023/03/12 02:51:22;;;;;;;2.50;2.30;;;;;;;;;;5057319;28;20204;-72
2023/03/12 02:53:53;;;;;;;2.60;2.40;;;;;;;;;;5057040;28;20201;-73
2023/03/12 02:56:21;;;;;;;2.22;2.03;;;;;;;;;;5056583;28;20212;-72
2023/03/12 02:58:49;;;;;;;2.40;2.20;;;;;;;;;;5056387;28;20213;-74
2023/03/12 03:01:19;;;;;;;2.42;2.22;;;;;;;;;;5055939;28;20601;-74
2023/03/12 03:03:47;;;;;;;2.30;2.10;;;;;;;;;;5055535;28;20224;-73
2023/03/12 03:06:15;;;;;;;3.00;2.70;;;;;;;;;;5056741;28;20205;-73
2023/03/12 03:08:42;;;;;;;2.30;2.10;;;;;;;;;;5056500;28;20205;-73
2023/03/12 03:11:10;;;;;;;2.40;2.20;;;;;;;;;;5056345;28;20201;-73
2023/03/12 03:13:38;;;;;;;2.33;2.13;;;;;;;;;;5056787;28;20207;-73
2023/03/12 03:16:06;;;;;;;2.20;2.10;;;;;;;;;;5056495;28;20209;-71
2023/03/12 03:18:35;;;;;;;2.40;2.20;;;;;;;;;;5056204;28;20209;-74
2023/03/12 03:21:04;;;;;;;2.42;2.22;;;;;;;;;;5056127;28;20240;-72
2023/03/12 03:23:32;;;;;;;2.35;2.20;;;;;;;;;;5056687;28;20240;-73
2023/03/12 03:25:59;;;;;;;2.40;2.20;;;;;;;;;;5056049;28;20412;-74
2023/03/12 03:28:28;;;;;;;2.30;2.10;;;;;;;;;;5056471;28;20251;-74
2023/03/12 03:30:56;;;;;;;2.28;1.98;;;;;;;;;;5056198;28;20532;-72
2023/03/12 03:33:25;;;;;;;2.67;2.47;;;;;;;;;;5056449;28;20208;-72
2023/03/12 03:35:58;;;;;;;2.25;2.05;;;;;;;;;;5056700;28;20205;-72
2023/03/12 03:38:26;;;;;;;2.53;2.33;;;;;;;;;;5055957;28;20550;-71
2023/03/12 03:40:54;;;;;;;2.45;2.25;;;;;;;;;;5055998;28;20212;-74
2023/03/12 03:43:22;;;;;;;2.55;2.35;;;;;;;;;;5056102;28;20233;-72
2023/03/12 03:45:49;;;;;;;2.47;2.28;;;;;;;;;;5055662;28;20278;-74
2023/03/12 03:48:17;;;;;;;2.50;2.30;;;;;;;;;;5056035;28;20237;-73
2023/03/12 03:50:45;;;;;;;2.65;2.45;;;;;;;;;;5056237;28;20299;-71
2023/03/12 03:53:14;;;;;;;2.50;2.17;;;;;;;;;;5055731;28;20212;-71
2023/03/12 03:55:42;;;;;;;2.50;2.30;;;;;;;;;;5055749;28;20233;-73
2023/03/12 03:58:10;;;;;;;2.17;2.03;;;;;;;;;;5055766;28;20215;-73
2023/03/12 04:00:38;;;;;;;2.40;2.20;;;;;;;;;;5056198;28;20490;-73
2023/03/12 04:03:06;;;;;;;2.30;2.10;;;;;;;;;;5055579;28;20327;-72
2023/03/12 04:05:34;;;;;;;2.10;2.00;;;;;;;;;;5054806;28;20201;-74
2023/03/12 04:08:02;;;;;;;2.50;2.30;;;;;;;;;;5056109;28;20213;-72
2023/03/12 04:10:32;;;;;;;2.50;2.30;;;;;;;;;;5055742;28;20205;-73
2023/03/12 04:12:59;;;;;;;2.40;2.20;;;;;;;;;;5055783;28;20211;-74
2023/03/12 04:15:27;;;;;;;2.47;2.28;;;;;;;;;;5055765;28;20205;-73
2023/03/12 04:17:54;;;;;;;2.70;2.50;;;;;;;;;;5055801;28;20248;-72
2023/03/12 04:20:22;;;;;;;2.67;2.40;;;;;;;;;;5054691;28;20228;-72
2023/03/12 04:22:50;;;;;;;2.53;2.33;;;;;;;;;;5055346;28;20224;-72
2023/03/12 04:25:18;;;;;;;2.30;2.10;;;;;;;;;;5055821;28;20677;-71
2023/03/12 04:27:47;;;;;;;2.60;2.40;;;;;;;;;;5055859;28;20472;-72
2023/03/12 04:30:15;;;;;;;2.40;2.20;;;;;;;;;;5055152;28;20605;-72
2023/03/12 04:32:43;;;;;;;2.20;2.03;;;;;;;;;;5054929;28;20496;-74
2023/03/12 04:35:10;;;;;;;2.17;2.08;;;;;;;;;;5055295;28;20209;-72
2023/03/12 04:37:39;;;;;;;2.58;2.38;;;;;;;;;;5055537;28;20616;-72
2023/03/12 04:40:08;;;;;;;2.47;2.28;;;;;;;;;;5055572;28;20212;-72
2023/03/12 04:42:36;;;;;;;2.60;2.40;;;;;;;;;;5055070;28;20239;-72
2023/03/12 04:45:06;;;;;;;2.65;2.45;;;;;;;;;;5055207;28;20292;-74
2023/03/12 04:47:34;;;;;;;2.47;2.28;;;;;;;;;;5054453;28;20200;-72
2023/03/12 04:50:02;;;;;;;2.22;2.13;;;;;;;;;;5055352;28;20205;-72
2023/03/12 04:52:29;;;;;;;2.38;2.17;;;;;;;;;;5054880;28;20295;-73
2023/03/12 04:54:58;;;;;;;2.55;2.35;;;;;;;;;;5055585;28;20239;-74
2023/03/12 04:57:25;;;;;;;2.40;2.20;;;;;;;;;;5054747;28;20210;-74
2023/03/12 04:59:53;;;;;;;2.63;2.42;;;;;;;;;;5054867;28;20292;-73
2023/03/12 05:02:22;;;;;;;2.30;2.10;;;;;;;;;;5015520;28;20202;-73
2023/03/12 05:04:50;;;;;;;2.50;2.30;;;;;;;;;;5015633;28;20643;-72
2023/03/12 05:07:17;;;;;;;2.65;2.45;;;;;;;;;;5015468;28;20210;-72
2023/03/12 05:09:45;;;;;;;2.30;2.10;;;;;;;;;;5015055;28;20579;-74
2023/03/12 05:12:12;;;;;;;2.28;2.08;;;;;;;;;;5015325;28;20206;-72
2023/03/12 05:14:39;;;;;;;2.40;2.20;;;;;;;;;;5023092;28;20198;-72
2023/03/12 05:17:07;;;;;;;2.42;2.22;;;;;;;;;;5034890;28;20270;-72
2023/03/12 05:19:36;;;;;;;2.60;2.40;;;;;;;;;;5034195;28;20715;-72
2023/03/12 05:22:03;;;;;;;2.50;2.30;;;;;;;;;;5034550;28;20264;-72
2023/03/12 05:24:31;;;;;;;2.33;2.13;;;;;;;;;;5034699;28;20550;-74
2023/03/12 05:26:58;;;;;;;2.50;2.30;;;;;;;;;;5034276;28;20216;-73
2023/03/12 05:29:26;;;;;;;2.53;2.33;;;;;;;;;;5038682;28;20549;-73
2023/03/12 05:31:53;;;;;;;2.60;2.40;;;;;;;;;;5034274;28;20206;-74
2023/03/12 05:34:21;;;;;;;2.53;2.10;;;;;;;;;;5034059;28;20288;-72
2023/03/12 05:36:50;;;;;;;2.45;2.25;;;;;;;;;;5034762;28;20329;-72
2023/03/12 05:39:17;;;;;;;2.40;2.20;;;;;;;;;;5034703;28;20304;-72
2023/03/12 05:41:44;;;;;;;2.60;2.15;;;;;;;;;;5034532;28;20502;-72
2023/03/12 05:44:14;;;;;;;2.30;2.10;;;;;;;;;;5037382;28;20525;-74
2023/03/12 05:46:42;;;;;;;2.50;2.30;;;;;;;;;;5037715;27;20213;-74
2023/03/12 05:49:10;;;;;;;2.28;2.08;;;;;;;;;;5037856;28;20205;-73
2023/03/12 05:51:37;;;;;;;2.60;2.40;;;;;;;;;;5038122;28;20252;-73
2023/03/12 05:54:06;;;;;;;2.40;2.20;;;;;;;;;;5037643;28;20244;-73
2023/03/12 05:56:36;;;;;;;2.30;2.20;;;;;;;;;;5037516;28;20284;-73
2023/03/12 05:59:04;;;;;;;2.60;2.40;;;;;;;;;;5037582;28;20206;-73
2023/03/12 06:01:32;;;;;;;2.25;2.05;;;;;;;;;;5037439;28;20664;-73
2023/03/12 06:03:59;;;;;;;2.30;2.10;;;;;;;;;;5037596;28;20363;-72
2023/03/12 06:06:27;;;;;;;2.20;2.00;;;;;;;;;;5037280;28;20296;-72
2023/03/12 06:08:54;;;;;;;2.35;2.15;;;;;;;;;;5037288;28;20596;-72
2023/03/12 06:11:23;;;;;;;2.40;2.20;;;;;;;;;;5036930;28;20216;-72
2023/03/12 06:13:50;;;;;;;2.17;2.05;;;;;;;;;;5036999;28;20296;-72
2023/03/12 06:16:19;;;;;;;2.80;2.42;;;;;;;;;;5036652;28;20241;-72
2023/03/12 06:18:47;;;;;;;2.05;1.95;;;;;;;;;;5037165;28;20309;-72
2023/03/12 06:21:15;;;;;;;2.53;2.30;;;;;;;;;;5037049;28;20324;-72
2023/03/12 06:23:43;;;;;;;2.47;2.28;;;;;;;;;;5038692;28;20316;-73
2023/03/12 06:26:11;;;;;;;2.40;2.20;;;;;;;;;;5037899;28;20301;-73
2023/03/12 06:28:40;;;;;;;2.25;2.05;;;;;;;;;;5037078;28;20240;-73
2023/03/12 06:31:08;;;;;;;2.47;2.28;;;;;;;;;;5036871;28;20541;-73
2023/03/12 06:33:36;;;;;;;2.53;2.13;;;;;;;;;;5036742;28;20293;-73
2023/03/12 06:36:04;;;;;;;2.50;2.30;;;;;;;;;;5036220;28;20205;-73
2023/03/12 06:38:32;;;;;;;2.47;2.28;;;;;;;;;;5036842;28;20234;-73
2023/03/12 06:41:00;;;;;;;2.40;2.20;;;;;;;;;;5037446;28;20536;-73
2023/03/12 06:43:29;;;;;;;2.35;2.15;;;;;;;;;;5036250;28;20329;-73
2023/03/12 06:45:58;;;;;;;2.17;1.98;;;;;;;;;;5036955;28;20249;-73
2023/03/12 06:48:26;;;;;;;2.38;2.17;;;;;;;;;;5037010;28;20284;-73
2023/03/12 06:50:54;;;;;;;2.17;1.98;;;;;;;;;;5036913;28;20289;-74
2023/03/12 06:53:21;;;;;;;2.30;2.10;;;;;;;;;;5036017;28;20480;-72
2023/03/12 06:55:50;;;;;;;2.50;2.30;;;;;;;;;;5036571;28;20308;-72
2023/03/12 06:58:19;;;;;;;2.15;2.00;;;;;;;;;;5036106;28;20604;-74
2023/03/12 07:00:46;;;;;;;2.25;2.08;;;;;;;;;;5036448;28;20271;-74
2023/03/12 07:03:15;;;;;;;2.35;2.15;;;;;;;;;;5036154;28;20265;-74
2023/03/12 07:05:44;;;;;;;2.40;2.20;;;;;;;;;;5035925;28;20209;-74
2023/03/12 07:08:12;;;;;;;2.38;2.17;;;;;;;;;;5036351;28;20228;-73
2023/03/12 07:10:40;;;;;;;2.28;2.08;;;;;;;;;;5037038;28;20210;-73
2023/03/12 07:13:07;;;;;;;2.20;2.00;;;;;;;;;;5036959;28;20729;-74
2023/03/12 07:15:35;;;;;;;2.33;2.13;;;;;;;;;;5036554;28;20201;-73
2023/03/12 07:18:04;;;;;;;2.33;2.13;;;;;;;;;;5036154;28;20570;-73
2023/03/12 07:20:34;;;;;;;2.25;2.05;;;;;;;;;;5036092;28;20232;-73
2023/03/12 07:23:01;;;;;;;2.33;2.13;;;;;;;;;;5035997;28;20237;-74
2023/03/12 07:25:29;;;;;;;2.28;2.08;;;;;;;;;;5036343;28;20280;-73
2023/03/12 07:27:56;;;;;;;2.38;2.13;;;;;;;;;;5036014;28;20565;-73
2023/03/12 07:30:23;;;;;;;2.30;2.10;;;;;;;;;;5036392;28;20237;-72
2023/03/12 07:32:51;;;;;;;2.38;2.17;;;;;;;;;;5036325;28;20212;-73
2023/03/12 07:35:18;;;;;;;2.85;2.65;;;;;;;;;;5035900;28;20201;-73
2023/03/12 07:37:47;;;;;;;6.28;5.68;;;;;;;;;;5035574;28;20308;-72
2023/03/12 07:40:15;;;;;;;10.73;9.63;;;;;;;;;;5035994;28;20228;-72
2023/03/12 07:42:42;;;;;;;10.85;9.85;;;;;;;;;;5036041;28;20214;-73
2023/03/12 07:45:10;;;;;;;10.77;9.68;;;;;;;;;;5035684;28;20320;-73
2023/03/12 07:47:38;;;;;;;12.65;10.02;;;;;;;;;;5035751;28;20202;-72
2023/03/12 07:50:05;;;;;;;10.88;9.70;;;;;;;;;;5035185;28;20249;-72
2023/03/12 07:52:33;;;;;;;9.45;8.50;;;;;;;;;;5035286;28;20289;-73
2023/03/12 07:55:01;;;;;;;9.38;8.38;;;;;;;;;;5035956;28;20531;-73
2023/03/12 07:57:29;;;;;;;8.70;7.80;;;;;;;;;;5035511;28;20206;-73
2023/03/12 07:59:56;;;;;;;9.10;8.20;;;;;;;;;;5035855;28;20245;-72
2023/03/12 08:02:24;;;;;;;13.15;8.60;;;;;;;;;;5035895;28;20245;-73
2023/03/12 08:04:51;;;;;;;9.20;7.85;;;;;;;;;;5034294;28;20606;-73
2023/03/12 08:07:19;;;;;;;8.40;7.60;;;;;;;;;;5035284;28;20265;-73
2023/03/12 08:09:48;;;;;;;10.43;8.35;;;;;;;;;;5035301;27;20206;-73
2023/03/12 08:12:16;;;;;;;8.55;7.65;;;;;;;;;;5035084;28;20253;-74
2023/03/12 08:14:45;;;;;;;8.45;7.50;;;;;;;;;;5034566;28;20612;-73
2023/03/12 08:17:12;;;;;;;8.20;7.32;;;;;;;;;;5035607;28;20213;-73
2023/03/12 08:19:41;;;;;;;9.73;7.63;;;;;;;;;;5035245;28;20206;-73
2023/03/12 08:22:09;;;;;;;7.93;7.10;;;;;;;;;;5035196;28;20337;-73
2023/03/12 08:24:36;;;;;;;7.32;6.63;;;;;;;;;;5034603;28;20316;-73
2023/03/12 08:27:03;;;;;;;7.13;6.40;;;;;;;;;;5035077;28;20308;-73
2023/03/12 08:29:33;;;;;;;7.45;6.75;;;;;;;;;;5034994;28;20206;-73
2023/03/12 08:32:00;;;;;;;6.65;5.88;;;;;;;;;;5034849;28;20206;-73
2023/03/12 08:34:27;;;;;;;8.32;6.35;;;;;;;;;;5034547;28;20813;-72
2023/03/12 08:36:56;;;;;;;7.55;6.38;;;;;;;;;;5034403;28;20206;-73
2023/03/12 08:39:23;;;;;;;7.10;5.70;;;;;;;;;;5034973;28;20288;-73
2023/03/12 08:41:54;;;;;;;6.50;5.80;;;;;;;;;;5034846;28;20255;-73
2023/03/12 08:44:21;;;;;;;6.03;5.43;;;;;;;;;;5035458;28;20279;-73
2023/03/12 08:46:50;;;;;;;6.63;5.47;;;;;;;;;;5034731;28;20585;-73
2023/03/12 08:49:17;;;;;;;6.70;5.18;;;;;;;;;;5035209;28;20599;-73
2023/03/12 08:51:45;;;;;;;6.72;5.28;;;;;;;;;;5034961;28;20577;-73
2023/03/12 08:54:12;;;;;;;5.97;5.18;;;;;;;;;;5034741;28;20245;-73
2023/03/12 08:56:42;;;;;;;6.22;5.15;;;;;;;;;;5034698;28;20301;-73
2023/03/12 08:59:09;;;;;;;5.40;4.90;;;;;;;;;;5034430;28;20271;-73
2023/03/12 09:01:37;;;;;;;6.07;5.15;;;;;;;;;;5034441;28;20582;-73
2023/03/12 09:04:06;;;;;;;5.60;4.90;;;;;;;;;;5034322;28;20265;-73
2023/03/12 09:06:34;;;;;;;5.10;4.60;;;;;;;;;;5033817;28;20206;-73
2023/03/12 09:09:04;;;;;;;5.60;4.85;;;;;;;;;;5033945;28;20296;-73
2023/03/12 09:11:31;;;;;;;4.75;4.25;;;;;;;;;;5034628;28;20206;-73
2023/03/12 09:13:59;;;;;;;6.10;4.63;;;;;;;;;;5034131;28;20589;-73
2023/03/12 09:16:26;;;;;;;6.18;4.55;;;;;;;;;;5033767;28;20209;-73
2023/03/12 09:18:54;;;;;;;6.32;4.80;;;;;;;;;;5033673;28;20216;-78
2023/03/12 09:21:23;;;;;;;8.52;5.30;;;;;;;;;;5033400;28;20244;-73
2023/03/12 09:23:51;;;;;;;6.57;5.18;;;;;;;;;;5034178;28;20616;-73
2023/03/12 09:26:18;;;;;;;5.63;4.78;;;;;;;;;;5033884;28;20293;-73
2023/03/12 09:28:45;;;;;;;7.68;5.30;;;;;;;;;;5034276;28;20260;-73
2023/03/12 09:31:13;;;;;;;5.50;4.30;;;;;;;;;;5034182;28;20212;-73
2023/03/12 09:33:41;;;;;;;5.47;4.30;;;;;;;;;;5034195;28;20259;-73
2023/03/12 09:36:08;;;;;;;6.20;4.47;;;;;;;;;;5034473;28;20574;-73
2023/03/12 09:38:37;;;;;;;6.32;4.00;;;;;;;;;;5034422;28;20206;-73
2023/03/12 09:41:05;;;;;;;4.75;3.70;;;;;;;;;;5034184;28;20205;-73
2023/03/12 09:43:35;;;;;;;6.28;4.40;;;;;;;;;;5034439;28;20304;-73
2023/03/12 09:46:03;;;;;;;4.70;3.92;;;;;;;;;;5033842;28;20592;-73
2023/03/12 09:48:33;;;;;;;4.22;3.67;;;;;;;;;;5034488;28;20209;-73
2023/03/12 09:51:02;;;;;;;4.45;3.70;;;;;;;;;;5034012;28;20221;-74
2023/03/12 09:53:32;;;;;;;7.22;3.90;;;;;;;;;;5034109;28;20555;-73
2023/03/12 09:56:07;;;;;;;4.40;3.28;;;;;;;;;;5033335;28;20517;-73
2023/03/12 09:58:36;;;;;;;5.60;3.60;;;;;;;;;;5033449;28;20206;-73
2023/03/12 10:01:08;;;;;;;4.78;3.45;;;;;;;;;;5034274;28;20736;-73
2023/03/12 10:03:47;;;;;;;4.50;3.30;;;;;;;;;;5032924;28;20657;-73
2023/03/12 10:06:18;;;;;;;4.72;3.70;;;;;;;;;;5033117;28;20257;-73
2023/03/12 10:08:52;;;;;;;6.65;3.92;;;;;;;;;;5033742;28;20624;-73
2023/03/12 10:11:24;;;;;;;4.65;3.70;;;;;;;;;;5033615;28;20635;-73
2023/03/12 10:13:55;;;;;;;4.10;3.17;;;;;;;;;;5032653;28;20204;-73
2023/03/12 10:16:30;;;;;;;6.60;3.30;;;;;;;;;;5033861;28;20241;-73
2023/03/12 10:19:06;;;;;;;4.65;2.97;;;;;;;;;;5032773;28;20209;-73
2023/03/12 10:21:36;;;;;;;4.63;3.20;;;;;;;;;;5032854;28;20252;-73
2023/03/12 10:24:13;;;;;;;4.78;3.05;;;;;;;;;;5032372;28;20734;-73
2023/03/12 10:26:44;;;;;;;3.40;3.00;;;;;;;;;;5032785;28;20206;-73
2023/03/12 10:29:13;;;;;;;4.80;3.15;;;;;;;;;;5035186;28;20754;-72
2023/03/12 10:31:48;;;;;;;3.95;2.83;;;;;;;;;;5036260;28;20241;-73
2023/03/12 10:34:18;;;;;;;3.35;2.60;;;;;;;;;;5036854;28;20216;-73
2023/03/12 10:36:46;;;;;;;6.28;3.10;;;;;;;;;;5036150;28;20204;-73
2023/03/12 10:39:15;;;;;;;3.58;2.58;;;;;;;;;;5036519;28;20462;-73
2023/03/12 10:41:44;;;;;;;3.92;2.67;;;;;;;;;;5035960;28;20305;-73
2023/03/12 10:44:15;;;;;;;4.90;2.70;;;;;;;;;;5036150;28;20244;-73
2023/03/12 10:46:54;;;;;;;5.25;2.90;;;;;;;;;;5036547;28;20205;-73
2023/03/12 10:49:26;;;;;;;4.25;2.58;;;;;;;;;;5036280;28;20205;-73
2023/03/12 10:51:55;;;;;;;3.63;2.40;;;;;;;;;;5036029;28;20216;-73
2023/03/12 10:54:23;;;;;;;3.78;2.30;;;;;;;;;;5035768;27;20505;-73
2023/03/12 10:56:52;;;;;;;3.42;2.30;;;;;;;;;;5035448;28;20213;-73
2023/03/12 10:59:21;;;;;;;3.72;2.15;;;;;;;;;;5035860;28;20308;-73
2023/03/12 11:01:50;;;;;;;4.35;2.35;;;;;;;;;;5035243;28;20621;-73
2023/03/12 11:04:19;;;;;;;5.15;2.47;;;;;;;;;;5036173;28;20321;-72
2023/03/12 11:07:03;;;;;;;3.33;2.20;;;;;;;;;;5035955;28;20252;-72
2023/03/12 11:09:30;;;;;;;4.60;2.35;;;;;;;;;;5035731;28;20531;-72
2023/03/12 11:11:59;;;;;;;3.78;2.30;;;;;;;;;;5035507;28;20234;-73
2023/03/12 11:14:28;;;;;;;4.45;1.90;;;;;;;;;;5035115;28;20205;-72
2023/03/12 11:16:57;;;;;;;3.65;2.10;;;;;;;;;;5035240;28;20206;-73
2023/03/12 11:19:28;;;;;;;3.15;2.05;;;;;;;;;;5035264;28;20487;-72
2023/03/12 11:21:57;;;;;;;3.08;2.10;;;;;;;;;;5035430;28;20233;-72
2023/03/12 11:24:25;;;;;;;3.05;1.90;;;;;;;;;;5035762;28;20602;-72
2023/03/12 11:26:53;;;;;;;3.25;1.90;;;;;;;;;;5035735;28;20278;-72
2023/03/12 11:29:28;;;;;;;3.33;2.20;;;;;;;;;;5035969;28;20292;-73
2023/03/12 11:32:00;;;;;;;3.28;1.90;;;;;;;;;;5036152;28;20208;-72
2023/03/12 11:34:29;;;;;;;4.15;2.00;;;;;;;;;;5035640;28;20623;-74
2023/03/12 11:37:00;;;;;;;2.63;1.85;;;;;;;;;;5035240;28;20574;-71
2023/03/12 11:39:34;;;;;;;3.45;1.90;;;;;;;;;;5035939;28;20212;-73
2023/03/12 11:42:07;;;;;;;2.78;2.00;;;;;;;;;;5035449;28;20241;-71
2023/03/12 11:44:39;;;;;;;2.53;1.83;;;;;;;;;;5035292;28;20491;-71
2023/03/12 11:47:11;;;;;;;4.20;1.90;;;;;;;;;;5034850;28;20267;-72
2023/03/12 11:49:45;;;;;;;3.40;1.70;;;;;;;;;;5035553;28;20633;-73
2023/03/12 11:52:17;;;;;;;3.42;1.70;;;;;;;;;;5034755;28;20205;-72
2023/03/12 11:54:59;;;;;;;2.97;1.77;;;;;;;;;;5034600;28;20546;-72
2023/03/12 11:57:32;;;;;;;2.60;1.60;;;;;;;;;;5030125;28;20202;-72
2023/03/12 12:00:11;;;;;;;3.38;1.52;;;;;;;;;;5034711;28;20464;-72
2023/03/12 12:02:53;;;;;;;4.38;1.70;;;;;;;;;;5033994;28;20289;-72
2023/03/12 12:05:23;;;;;;;2.97;1.50;;;;;;;;;;5021053;28;20225;-72
2023/03/12 12:07:58;;;;;;;3.08;1.50;;;;;;;;;;5033995;28;20252;-72
2023/03/12 12:10:28;;;;;;;2.85;1.58;;;;;;;;;;5034339;28;20201;-72
2023/03/12 12:12:59;;;;;;;3.90;1.40;;;;;;;;;;5033622;28;20498;-72
2023/03/12 12:15:34;;;;;;;2.25;1.60;;;;;;;;;;5034126;28;20204;-72
2023/03/12 12:18:10;;;;;;;3.03;1.75;;;;;;;;;;5031254;28;20266;-73
2023/03/12 12:20:40;;;;;;;3.60;1.73;;;;;;;;;;5034411;28;20241;-72
2023/03/12 12:23:15;;;;;;;2.78;1.40;;;;;;;;;;5034307;28;20208;-73
2023/03/12 12:25:56;;;;;;;2.28;1.58;;;;;;;;;;5034074;28;20238;-72
2023/03/12 12:28:31;;;;;;;2.58;1.60;;;;;;;;;;5034360;28;20209;-72
2023/03/12 12:31:06;;;;;;;2.08;1.70;;;;;;;;;;5032999;28;20205;-73
2023/03/12 12:33:42;;;;;;;2.33;1.50;;;;;;;;;;5033802;28;20205;-73
2023/03/12 12:36:11;;;;;;;3.72;3.05;;;;;;;;;;5034287;28;20285;-73
2023/03/12 12:38:40;;;;;;;3.10;2.40;;;;;;;;;;5034509;28;20202;-73
2023/03/12 12:41:10;;;;;;;2.38;2.13;;;;;;;;;;5034324;28;20260;-72
2023/03/12 12:43:38;;;;;;;3.03;2.60;;;;;;;;;;5033634;28;20214;-72
2023/03/12 12:46:10;;;;;;;3.53;2.72;;;;;;;;;;5034521;28;20229;-72
2023/03/12 12:48:39;;;;;;;3.63;2.55;;;;;;;;;;5034315;28;20237;-72
2023/03/12 12:51:08;;;;;;;3.42;2.40;;;;;;;;;;5033459;28;20245;-72
2023/03/12 12:53:40;;;;;;;3.33;2.60;;;;;;;;;;5033755;28;20591;-72
2023/03/12 12:56:11;;;;;;;3.55;2.28;;;;;;;;;;5013629;28;20203;-72
2023/03/12 12:58:47;;;;;;;2.83;2.20;;;;;;;;;;5014235;28;20228;-73
2023/03/12 13:01:16;;;;;;;3.10;2.13;;;;;;;;;;5013968;28;20234;-71
2023/03/12 13:03:44;;;;;;;3.15;2.00;;;;;;;;;;5013676;28;20209;-73
2023/03/12 13:06:11;;;;;;;2.60;2.30;;;;;;;;;;5013666;28;20317;-71
2023/03/12 13:08:57;;;;;;;5.00;2.30;;;;;;;;;;5013647;28;20567;-73
2023/03/12 13:11:26;;;;;;;3.05;2.35;;;;;;;;;;5014015;28;20239;-73
2023/03/12 13:14:09;;;;;;;4.75;2.63;;;;;;;;;;5013883;28;20403;-72
2023/03/12 13:16:39;;;;;;;5.72;3.72;;;;;;;;;;5030436;28;20251;-72
2023/03/12 13:19:09;;;;;;;11.05;6.32;;;;;;;;;;5029323;28;20206;-73
2023/03/12 13:21:39;;;;;;;9.85;8.85;;;;;;;;;;5033029;28;20379;-72
2023/03/12 13:24:13;;;;;;;10.80;8.90;;;;;;;;;;5033196;28;20300;-72
2023/03/12 13:26:48;;;;;;;12.85;10.27;;;;;;;;;;5031901;28;20307;-73
2023/03/12 13:29:22;;;;;;;13.05;10.35;;;;;;;;;;5032465;28;20240;-73
2023/03/12 13:31:51;;;;;;;14.40;13.00;;;;;;;;;;5022104;28;20214;-72
2023/03/12 13:34:44;;;;;;;20.00;17.88;;;;;;;;;;5032383;28;20270;-72
2023/03/12 13:37:19;;;;;;;23.45;21.45;;;;;;;;;;5013707;28;20209;-73
2023/03/12 13:39:46;;;;;;;27.73;25.30;;;;;;;;;;5013270;28;20646;-72
2023/03/12 13:42:47;;;;;;;30.15;27.65;;;;;;;;;;5013046;28;20206;-73
2023/03/12 13:45:29;;;;;;;31.80;29.30;;;;;;;;;;4972240;28;20238;-73
2023/03/12 13:47:59;;;;;;;33.15;30.55;;;;;;;;;;4980430;28;20225;-73
2023/03/12 13:50:27;;;;;;;33.33;30.75;;;;;;;;;;5003712;28;20206;-72
2023/03/12 13:53:01;;;;;;;33.92;31.45;;;;;;;;;;5012253;28;20248;-72
2023/03/12 13:55:29;;;;;;;32.70;30.30;;;;;;;;;;5012751;28;20210;-72
2023/03/12 13:57:59;;;;;;;31.65;29.25;;;;;;;;;;5012536;28;20258;-72
2023/03/12 14:00:28;;;;;;;29.17;26.90;;;;;;;;;;5013174;28;20557;-72
2023/03/12 14:02:58;;;;;;;28.75;26.65;;;;;;;;;;5019163;28;20202;-72
2023/03/12 14:05:27;;;;;;;27.30;25.35;;;;;;;;;;5030042;27;20201;-72
2023/03/12 14:08:11;;;;;;;24.85;23.08;;;;;;;;;;5059814;27;20204;-73
2023/03/12 14:10:44;;;;;;;24.70;22.90;;;;;;;;;;5036026;28;20324;-72
2023/03/12 14:13:20;;;;;;;22.85;21.15;;;;;;;;;;5035083;28;20316;-72
2023/03/12 14:15:52;;;;;;;20.83;19.33;;;;;;;;;;5035835;28;20297;-72
2023/03/12 14:18:21;;;;;;;19.05;17.75;;;;;;;;;;5035639;28;20262;-72
2023/03/12 14:20:54;;;;;;;19.35;17.85;;;;;;;;;;5020516;28;20233;-72
2023/03/12 14:23:22;;;;;;;17.77;16.52;;;;;;;;;;5035419;28;20229;-72
2023/03/12 14:25:50;;;;;;;16.70;15.50;;;;;;;;;;5035484;28;20232;-73
2023/03/12 14:28:19;;;;;;;15.38;14.18;;;;;;;;;;5034822;28;20228;-73
2023/03/12 14:30:50;;;;;;;14.35;13.35;;;;;;;;;;5034817;28;20204;-73
2023/03/12 14:33:17;;;;;;;13.98;12.98;;;;;;;;;;5019941;28;20297;-73
2023/03/12 14:35:46;;;;;;;12.57;11.60;;;;;;;;;;5035881;28;20272;-74
2023/03/12 14:38:17;;;;;;;10.73;9.93;;;;;;;;;;5034461;28;20198;-73
2023/03/12 14:40:46;;;;;;;10.73;10.02;;;;;;;;;;5036184;28;20206;-73
2023/03/12 14:43:20;;;;;;;10.07;9.30;;;;;;;;;;5035819;28;20624;-73
2023/03/12 14:45:50;;;;;;;8.93;8.32;;;;;;;;;;5035617;28;20325;-73
2023/03/12 14:48:21;;;;;;;9.10;8.50;;;;;;;;;;5035200;28;20206;-73
2023/03/12 14:50:49;;;;;;;9.35;8.57;;;;;;;;;;5035026;28;20618;-72
2023/03/12 14:53:22;;;;;;;8.40;7.72;;;;;;;;;;5035467;28;20237;-74